sensor_id;sensor_type;location;lat;lon;timestamp;P1;durP1;ratioP1;P2;durP2;ratioP2
2434;SDS011;1228;51.022;6.764;2023-07-08T00:00:57;5.20;;;4.70;;
2434;SDS011;1228;51.022;6.764;2023-07-08T00:03:22;6.00;;;5.50;;
2434;SDS011;1228;51.022;6.764;2023-07-08T00:05:50;5.15;;;4.75;;
2434;SDS011;1228;51.022;6.764;2023-07-08T00:08:19;6.18;;;5.65;;
2434;SDS011;1228;51.022;6.764;2023-07-08T00:10:45;5.68;;;4.78;;
2434;SDS011;1228;51.022;6.764;2023-07-08T00:13:11;8.32;;;4.70;;
2434;SDS011;1228;51.022;6.764;2023-07-08T00:15:36;6.43;;;5.85;;
2434;SDS011;1228;51.022;6.764;2023-07-08T00:18:11;6.40;;;5.80;;
2434;SDS011;1228;51.022;6.764;2023-07-08T00:20:44;5.45;;;4.72;;
2434;SDS011;1228;51.022;6.764;2023-07-08T00:23:14;5.28;;;4.88;;
2434;SDS011;1228;51.022;6.764;2023-07-08T00:25:40;5.47;;;5.00;;
2434;SDS011;1228;51.022;6.764;2023-07-08T00:28:12;9.00;;;4.80;;
2434;SDS011;1228;51.022;6.764;2023-07-08T00:30:40;5.45;;;4.95;;
2434;SDS011;1228;51.022;6.764;2023-07-08T00:33:06;6.93;;;6.10;;
2434;SDS011;1228;51.022;6.764;2023-07-08T00:35:35;6.13;;;5.53;;
2434;SDS011;1228;51.022;6.764;2023-07-08T00:38:22;8.25;;;6.03;;
2434;SDS011;1228;51.022;6.764;2023-07-08T00:43:36;5.82;;;5.32;;
2434;SDS011;1228;51.022;6.764;2023-07-08T00:51:24;7.82;;;5.75;;
2434;SDS011;1228;51.022;6.764;2023-07-08T00:53:50;6.22;;;4.82;;
2434;SDS011;1228;51.022;6.764;2023-07-08T00:56:17;7.03;;;6.43;;
2434;SDS011;1228;51.022;6.764;2023-07-08T01:01:28;7.32;;;6.63;;
2434;SDS011;1228;51.022;6.764;2023-07-08T01:03:58;5.75;;;5.35;;
2434;SDS011;1228;51.022;6.764;2023-07-08T01:06:29;5.97;;;5.38;;
2434;SDS011;1228;51.022;6.764;2023-07-08T01:08:58;6.57;;;5.88;;
2434;SDS011;1228;51.022;6.764;2023-07-08T01:11:27;6.80;;;5.75;;
2434;SDS011;1228;51.022;6.764;2023-07-08T01:13:53;6.07;;;5.68;;
2434;SDS011;1228;51.022;6.764;2023-07-08T01:16:19;6.20;;;5.70;;
2434;SDS011;1228;51.022;6.764;2023-07-08T01:18:44;5.50;;;5.10;;
2434;SDS011;1228;51.022;6.764;2023-07-08T01:23:57;6.38;;;5.78;;
2434;SDS011;1228;51.022;6.764;2023-07-08T01:26:24;8.85;;;5.65;;
2434;SDS011;1228;51.022;6.764;2023-07-08T01:28:51;6.47;;;5.07;;
2434;SDS011;1228;51.022;6.764;2023-07-08T01:31:18;6.28;;;5.72;;
2434;SDS011;1228;51.022;6.764;2023-07-08T01:33:46;6.13;;;5.53;;
2434;SDS011;1228;51.022;6.764;2023-07-08T01:36:11;6.20;;;5.63;;
2434;SDS011;1228;51.022;6.764;2023-07-08T01:38:37;5.97;;;5.47;;
2434;SDS011;1228;51.022;6.764;2023-07-08T01:41:04;7.13;;;5.20;;
2434;SDS011;1228;51.022;6.764;2023-07-08T01:43:31;5.78;;;5.28;;
2434;SDS011;1228;51.022;6.764;2023-07-08T01:45:58;6.63;;;5.80;;
2434;SDS011;1228;51.022;6.764;2023-07-08T01:48:25;5.68;;;5.25;;
2434;SDS011;1228;51.022;6.764;2023-07-08T01:50:57;6.78;;;5.75;;
2434;SDS011;1228;51.022;6.764;2023-07-08T01:53:31;6.05;;;5.55;;
2434;SDS011;1228;51.022;6.764;2023-07-08T01:56:00;7.32;;;5.45;;
2434;SDS011;1228;51.022;6.764;2023-07-08T01:58:26;5.35;;;4.85;;
2434;SDS011;1228;51.022;6.764;2023-07-08T02:00:52;6.78;;;6.18;;
2434;SDS011;1228;51.022;6.764;2023-07-08T02:03:19;7.35;;;6.13;;
2434;SDS011;1228;51.022;6.764;2023-07-08T02:05:45;6.53;;;5.78;;
2434;SDS011;1228;51.022;6.764;2023-07-08T02:08:11;8.45;;;6.57;;
2434;SDS011;1228;51.022;6.764;2023-07-08T02:10:37;6.50;;;5.97;;
2434;SDS011;1228;51.022;6.764;2023-07-08T02:13:04;6.65;;;6.15;;
2434;SDS011;1228;51.022;6.764;2023-07-08T02:15:29;8.25;;;6.57;;
2434;SDS011;1228;51.022;6.764;2023-07-08T02:17:55;7.72;;;6.97;;
2434;SDS011;1228;51.022;6.764;2023-07-08T02:20:21;7.55;;;6.85;;
2434;SDS011;1228;51.022;6.764;2023-07-08T02:22:46;7.43;;;6.72;;
2434;SDS011;1228;51.022;6.764;2023-07-08T02:25:12;7.40;;;6.70;;
2434;SDS011;1228;51.022;6.764;2023-07-08T02:27:38;7.55;;;6.63;;
2434;SDS011;1228;51.022;6.764;2023-07-08T02:30:04;7.97;;;6.43;;
2434;SDS011;1228;51.022;6.764;2023-07-08T02:32:31;7.15;;;6.35;;
2434;SDS011;1228;51.022;6.764;2023-07-08T02:34:59;7.63;;;6.82;;
2434;SDS011;1228;51.022;6.764;2023-07-08T02:37:25;7.93;;;6.03;;
2434;SDS011;1228;51.022;6.764;2023-07-08T02:39:51;7.80;;;7.00;;
2434;SDS011;1228;51.022;6.764;2023-07-08T02:42:16;7.75;;;5.85;;
2434;SDS011;1228;51.022;6.764;2023-07-08T02:44:42;7.55;;;6.47;;
2434;SDS011;1228;51.022;6.764;2023-07-08T02:47:07;7.60;;;6.07;;
2434;SDS011;1228;51.022;6.764;2023-07-08T02:49:33;6.53;;;5.57;;
2434;SDS011;1228;51.022;6.764;2023-07-08T02:51:59;7.05;;;6.32;;
2434;SDS011;1228;51.022;6.764;2023-07-08T02:54:24;6.78;;;6.18;;
2434;SDS011;1228;51.022;6.764;2023-07-08T02:56:50;6.35;;;5.75;;
2434;SDS011;1228;51.022;6.764;2023-07-08T02:59:15;6.80;;;6.15;;
2434;SDS011;1228;51.022;6.764;2023-07-08T03:01:41;7.23;;;6.10;;
2434;SDS011;1228;51.022;6.764;2023-07-08T03:04:07;7.82;;;7.22;;
2434;SDS011;1228;51.022;6.764;2023-07-08T03:06:37;8.47;;;5.70;;
2434;SDS011;1228;51.022;6.764;2023-07-08T03:09:07;7.93;;;7.03;;
2434;SDS011;1228;51.022;6.764;2023-07-08T03:11:33;7.20;;;6.60;;
2434;SDS011;1228;51.022;6.764;2023-07-08T03:13:58;7.07;;;6.38;;
2434;SDS011;1228;51.022;6.764;2023-07-08T03:16:24;7.03;;;6.35;;
2434;SDS011;1228;51.022;6.764;2023-07-08T03:18:50;7.75;;;6.32;;
2434;SDS011;1228;51.022;6.764;2023-07-08T03:21:16;7.47;;;6.30;;
2434;SDS011;1228;51.022;6.764;2023-07-08T03:23:43;8.95;;;7.28;;
2434;SDS011;1228;51.022;6.764;2023-07-08T03:26:15;7.10;;;6.45;;
2434;SDS011;1228;51.022;6.764;2023-07-08T03:28:46;7.40;;;6.70;;
2434;SDS011;1228;51.022;6.764;2023-07-08T03:31:12;6.88;;;6.28;;
2434;SDS011;1228;51.022;6.764;2023-07-08T03:33:37;6.93;;;6.20;;
2434;SDS011;1228;51.022;6.764;2023-07-08T03:36:04;6.75;;;6.15;;
2434;SDS011;1228;51.022;6.764;2023-07-08T03:38:35;6.57;;;6.07;;
2434;SDS011;1228;51.022;6.764;2023-07-08T03:41:00;7.80;;;6.25;;
2434;SDS011;1228;51.022;6.764;2023-07-08T03:43:26;7.38;;;6.78;;
2434;SDS011;1228;51.022;6.764;2023-07-08T03:45:51;7.25;;;6.55;;
2434;SDS011;1228;51.022;6.764;2023-07-08T03:48:18;9.35;;;6.63;;
2434;SDS011;1228;51.022;6.764;2023-07-08T03:50:44;8.07;;;5.88;;
2434;SDS011;1228;51.022;6.764;2023-07-08T03:53:09;9.23;;;6.25;;
2434;SDS011;1228;51.022;6.764;2023-07-08T03:55:35;6.85;;;5.75;;
2434;SDS011;1228;51.022;6.764;2023-07-08T03:58:01;7.90;;;6.25;;
2434;SDS011;1228;51.022;6.764;2023-07-08T04:00:26;6.15;;;5.70;;
2434;SDS011;1228;51.022;6.764;2023-07-08T04:02:52;7.03;;;6.43;;
2434;SDS011;1228;51.022;6.764;2023-07-08T04:05:18;7.50;;;5.88;;
2434;SDS011;1228;51.022;6.764;2023-07-08T04:07:45;6.80;;;6.20;;
2434;SDS011;1228;51.022;6.764;2023-07-08T04:10:11;6.53;;;5.50;;
2434;SDS011;1228;51.022;6.764;2023-07-08T04:12:38;7.18;;;6.45;;
2434;SDS011;1228;51.022;6.764;2023-07-08T04:15:04;7.40;;;6.60;;
2434;SDS011;1228;51.022;6.764;2023-07-08T04:17:32;9.00;;;6.43;;
2434;SDS011;1228;51.022;6.764;2023-07-08T04:19:58;6.82;;;5.85;;
2434;SDS011;1228;51.022;6.764;2023-07-08T04:22:29;7.03;;;5.80;;
2434;SDS011;1228;51.022;6.764;2023-07-08T04:24:54;7.57;;;5.60;;
2434;SDS011;1228;51.022;6.764;2023-07-08T04:27:20;6.57;;;5.85;;
2434;SDS011;1228;51.022;6.764;2023-07-08T04:29:46;7.22;;;6.53;;
2434;SDS011;1228;51.022;6.764;2023-07-08T04:32:13;6.60;;;5.90;;
2434;SDS011;1228;51.022;6.764;2023-07-08T04:34:39;6.20;;;5.60;;
2434;SDS011;1228;51.022;6.764;2023-07-08T04:37:04;6.30;;;5.70;;
2434;SDS011;1228;51.022;6.764;2023-07-08T04:39:31;9.50;;;7.03;;
2434;SDS011;1228;51.022;6.764;2023-07-08T04:41:56;7.07;;;6.37;;
2434;SDS011;1228;51.022;6.764;2023-07-08T04:44:22;7.60;;;6.90;;
2434;SDS011;1228;51.022;6.764;2023-07-08T04:46:50;7.95;;;6.90;;
2434;SDS011;1228;51.022;6.764;2023-07-08T04:49:19;7.82;;;7.05;;
2434;SDS011;1228;51.022;6.764;2023-07-08T04:51:45;8.27;;;7.20;;
2434;SDS011;1228;51.022;6.764;2023-07-08T04:54:11;7.90;;;7.20;;
2434;SDS011;1228;51.022;6.764;2023-07-08T04:59:11;7.30;;;6.43;;
2434;SDS011;1228;51.022;6.764;2023-07-08T05:01:38;7.63;;;5.80;;
2434;SDS011;1228;51.022;6.764;2023-07-08T05:04:05;6.35;;;5.75;;
2434;SDS011;1228;51.022;6.764;2023-07-08T05:06:31;9.20;;;6.75;;
2434;SDS011;1228;51.022;6.764;2023-07-08T05:08:58;6.90;;;6.20;;
2434;SDS011;1228;51.022;6.764;2023-07-08T05:11:24;8.30;;;7.55;;
2434;SDS011;1228;51.022;6.764;2023-07-08T05:13:50;8.35;;;7.50;;
2434;SDS011;1228;51.022;6.764;2023-07-08T05:16:16;7.97;;;7.18;;
2434;SDS011;1228;51.022;6.764;2023-07-08T05:18:42;6.50;;;5.78;;
2434;SDS011;1228;51.022;6.764;2023-07-08T05:21:08;8.35;;;7.68;;
2434;SDS011;1228;51.022;6.764;2023-07-08T05:23:34;7.63;;;6.45;;
2434;SDS011;1228;51.022;6.764;2023-07-08T05:26:00;8.02;;;7.28;;
2434;SDS011;1228;51.022;6.764;2023-07-08T05:28:28;9.05;;;8.25;;
2434;SDS011;1228;51.022;6.764;2023-07-08T05:30:54;6.75;;;6.15;;
2434;SDS011;1228;51.022;6.764;2023-07-08T05:33:20;5.70;;;5.20;;
2434;SDS011;1228;51.022;6.764;2023-07-08T05:35:47;6.93;;;5.43;;
2434;SDS011;1228;51.022;6.764;2023-07-08T05:38:13;7.53;;;6.63;;
2434;SDS011;1228;51.022;6.764;2023-07-08T05:40:38;6.00;;;5.40;;
2434;SDS011;1228;51.022;6.764;2023-07-08T05:43:04;8.25;;;6.15;;
2434;SDS011;1228;51.022;6.764;2023-07-08T05:45:29;5.57;;;5.03;;
2434;SDS011;1228;51.022;6.764;2023-07-08T05:47:55;8.07;;;5.18;;
2434;SDS011;1228;51.022;6.764;2023-07-08T05:50:21;7.43;;;5.13;;
2434;SDS011;1228;51.022;6.764;2023-07-08T05:52:47;6.13;;;5.63;;
2434;SDS011;1228;51.022;6.764;2023-07-08T05:55:12;6.38;;;5.05;;
2434;SDS011;1228;51.022;6.764;2023-07-08T05:57:38;5.63;;;5.13;;
2434;SDS011;1228;51.022;6.764;2023-07-08T06:00:04;6.68;;;5.15;;
2434;SDS011;1228;51.022;6.764;2023-07-08T06:02:31;8.90;;;5.40;;
2434;SDS011;1228;51.022;6.764;2023-07-08T06:04:57;7.50;;;5.70;;
2434;SDS011;1228;51.022;6.764;2023-07-08T06:07:22;5.68;;;5.10;;
2434;SDS011;1228;51.022;6.764;2023-07-08T06:09:48;6.40;;;5.43;;
2434;SDS011;1228;51.022;6.764;2023-07-08T06:12:14;5.85;;;5.38;;
2434;SDS011;1228;51.022;6.764;2023-07-08T06:14:39;7.82;;;5.90;;
2434;SDS011;1228;51.022;6.764;2023-07-08T06:17:05;7.35;;;5.05;;
2434;SDS011;1228;51.022;6.764;2023-07-08T06:19:32;5.13;;;4.40;;
2434;SDS011;1228;51.022;6.764;2023-07-08T06:21:58;5.25;;;4.40;;
2434;SDS011;1228;51.022;6.764;2023-07-08T06:24:23;8.13;;;5.15;;
2434;SDS011;1228;51.022;6.764;2023-07-08T06:26:49;4.78;;;4.32;;
2434;SDS011;1228;51.022;6.764;2023-07-08T06:29:14;4.60;;;4.20;;
2434;SDS011;1228;51.022;6.764;2023-07-08T06:31:41;6.05;;;4.78;;
2434;SDS011;1228;51.022;6.764;2023-07-08T06:34:07;6.00;;;5.18;;
2434;SDS011;1228;51.022;6.764;2023-07-08T06:36:32;11.23;;;5.30;;
2434;SDS011;1228;51.022;6.764;2023-07-08T06:38:58;5.95;;;5.45;;
2434;SDS011;1228;51.022;6.764;2023-07-08T06:41:24;5.53;;;5.07;;
2434;SDS011;1228;51.022;6.764;2023-07-08T06:43:49;6.10;;;5.38;;
2434;SDS011;1228;51.022;6.764;2023-07-08T06:46:15;5.72;;;5.18;;
2434;SDS011;1228;51.022;6.764;2023-07-08T06:48:41;5.00;;;4.50;;
2434;SDS011;1228;51.022;6.764;2023-07-08T06:51:07;6.40;;;4.85;;
2434;SDS011;1228;51.022;6.764;2023-07-08T06:53:33;11.32;;;6.55;;
2434;SDS011;1228;51.022;6.764;2023-07-08T06:55:58;5.88;;;5.00;;
2434;SDS011;1228;51.022;6.764;2023-07-08T06:58:24;6.40;;;5.80;;
2434;SDS011;1228;51.022;6.764;2023-07-08T07:00:50;12.13;;;10.48;;
2434;SDS011;1228;51.022;6.764;2023-07-08T07:03:15;6.80;;;6.20;;
2434;SDS011;1228;51.022;6.764;2023-07-08T07:05:42;5.68;;;5.18;;
2434;SDS011;1228;51.022;6.764;2023-07-08T07:08:09;5.55;;;5.03;;
2434;SDS011;1228;51.022;6.764;2023-07-08T07:10:35;7.97;;;5.03;;
2434;SDS011;1228;51.022;6.764;2023-07-08T07:13:01;5.18;;;4.68;;
2434;SDS011;1228;51.022;6.764;2023-07-08T07:15:27;5.10;;;4.50;;
2434;SDS011;1228;51.022;6.764;2023-07-08T07:17:55;5.30;;;4.40;;
2434;SDS011;1228;51.022;6.764;2023-07-08T07:20:20;5.68;;;5.07;;
2434;SDS011;1228;51.022;6.764;2023-07-08T07:22:46;5.65;;;4.80;;
2434;SDS011;1228;51.022;6.764;2023-07-08T07:25:11;6.10;;;5.18;;
2434;SDS011;1228;51.022;6.764;2023-07-08T07:27:37;6.13;;;5.53;;
2434;SDS011;1228;51.022;6.764;2023-07-08T07:30:03;6.28;;;5.38;;
2434;SDS011;1228;51.022;6.764;2023-07-08T07:32:29;6.57;;;5.13;;
2434;SDS011;1228;51.022;6.764;2023-07-08T07:34:54;7.05;;;5.57;;
2434;SDS011;1228;51.022;6.764;2023-07-08T07:37:22;6.32;;;5.72;;
2434;SDS011;1228;51.022;6.764;2023-07-08T07:39:48;7.15;;;5.32;;
2434;SDS011;1228;51.022;6.764;2023-07-08T07:42:14;5.95;;;5.18;;
2434;SDS011;1228;51.022;6.764;2023-07-08T07:44:40;7.07;;;5.75;;
2434;SDS011;1228;51.022;6.764;2023-07-08T07:47:07;6.75;;;5.22;;
2434;SDS011;1228;51.022;6.764;2023-07-08T07:49:33;5.25;;;4.75;;
2434;SDS011;1228;51.022;6.764;2023-07-08T07:51:59;6.88;;;4.85;;
2434;SDS011;1228;51.022;6.764;2023-07-08T07:54:25;5.25;;;4.75;;
2434;SDS011;1228;51.022;6.764;2023-07-08T07:56:50;6.95;;;5.53;;
2434;SDS011;1228;51.022;6.764;2023-07-08T07:59:16;6.57;;;5.68;;
2434;SDS011;1228;51.022;6.764;2023-07-08T08:01:42;7.75;;;5.03;;
2434;SDS011;1228;51.022;6.764;2023-07-08T08:04:09;6.22;;;5.03;;
2434;SDS011;1228;51.022;6.764;2023-07-08T08:06:35;5.47;;;4.82;;
2434;SDS011;1228;51.022;6.764;2023-07-08T08:09:01;7.57;;;5.03;;
2434;SDS011;1228;51.022;6.764;2023-07-08T08:11:28;6.00;;;4.95;;
2434;SDS011;1228;51.022;6.764;2023-07-08T08:13:53;7.50;;;5.22;;
2434;SDS011;1228;51.022;6.764;2023-07-08T08:16:19;5.53;;;4.95;;
2434;SDS011;1228;51.022;6.764;2023-07-08T08:18:45;5.82;;;5.22;;
2434;SDS011;1228;51.022;6.764;2023-07-08T08:21:11;6.05;;;4.90;;
2434;SDS011;1228;51.022;6.764;2023-07-08T08:23:37;5.30;;;4.80;;
2434;SDS011;1228;51.022;6.764;2023-07-08T08:26:02;6.82;;;5.40;;
2434;SDS011;1228;51.022;6.764;2023-07-08T08:28:28;5.50;;;5.00;;
2434;SDS011;1228;51.022;6.764;2023-07-08T08:30:54;6.50;;;5.07;;
2434;SDS011;1228;51.022;6.764;2023-07-08T08:33:19;9.60;;;5.20;;
2434;SDS011;1228;51.022;6.764;2023-07-08T08:35:45;5.97;;;5.13;;
2434;SDS011;1228;51.022;6.764;2023-07-08T08:38:11;7.00;;;4.88;;
2434;SDS011;1228;51.022;6.764;2023-07-08T08:40:37;9.52;;;5.55;;
2434;SDS011;1228;51.022;6.764;2023-07-08T08:43:27;6.15;;;5.38;;
2434;SDS011;1228;51.022;6.764;2023-07-08T08:46:03;5.53;;;5.03;;
2434;SDS011;1228;51.022;6.764;2023-07-08T08:51:24;6.38;;;4.88;;
2434;SDS011;1228;51.022;6.764;2023-07-08T08:53:53;7.53;;;5.13;;
2434;SDS011;1228;51.022;6.764;2023-07-08T08:56:26;6.88;;;6.10;;
2434;SDS011;1228;51.022;6.764;2023-07-08T09:01:31;6.40;;;5.80;;
2434;SDS011;1228;51.022;6.764;2023-07-08T09:03:59;6.50;;;4.93;;
2434;SDS011;1228;51.022;6.764;2023-07-08T09:06:31;4.60;;;4.00;;
2434;SDS011;1228;51.022;6.764;2023-07-08T09:09:03;4.80;;;4.40;;
2434;SDS011;1228;51.022;6.764;2023-07-08T09:11:55;6.18;;;4.95;;
2434;SDS011;1228;51.022;6.764;2023-07-08T09:14:28;6.78;;;4.65;;
2434;SDS011;1228;51.022;6.764;2023-07-08T09:16:57;5.22;;;4.35;;
2434;SDS011;1228;51.022;6.764;2023-07-08T09:19:35;6.05;;;4.38;;
2434;SDS011;1228;51.022;6.764;2023-07-08T09:22:21;6.57;;;4.70;;
2434;SDS011;1228;51.022;6.764;2023-07-08T09:27:39;5.78;;;4.25;;
2434;SDS011;1228;51.022;6.764;2023-07-08T09:30:08;5.65;;;4.72;;
2434;SDS011;1228;51.022;6.764;2023-07-08T09:32:39;5.15;;;4.53;;
2434;SDS011;1228;51.022;6.764;2023-07-08T09:35:06;5.30;;;4.65;;
2434;SDS011;1228;51.022;6.764;2023-07-08T09:37:36;5.40;;;4.55;;
2434;SDS011;1228;51.022;6.764;2023-07-08T09:40:04;6.15;;;4.57;;
2434;SDS011;1228;51.022;6.764;2023-07-08T09:42:43;5.75;;;4.10;;
2434;SDS011;1228;51.022;6.764;2023-07-08T09:45:15;5.88;;;5.00;;
2434;SDS011;1228;51.022;6.764;2023-07-08T09:47:44;7.30;;;4.30;;
2434;SDS011;1228;51.022;6.764;2023-07-08T09:50:18;4.90;;;4.40;;
2434;SDS011;1228;51.022;6.764;2023-07-08T09:52:51;4.97;;;3.83;;
2434;SDS011;1228;51.022;6.764;2023-07-08T09:55:19;5.80;;;4.93;;
2434;SDS011;1228;51.022;6.764;2023-07-08T09:57:45;5.15;;;4.75;;
2434;SDS011;1228;51.022;6.764;2023-07-08T10:00:15;7.43;;;4.40;;
2434;SDS011;1228;51.022;6.764;2023-07-08T10:02:44;5.00;;;4.47;;
2434;SDS011;1228;51.022;6.764;2023-07-08T10:05:24;6.68;;;4.63;;
2434;SDS011;1228;51.022;6.764;2023-07-08T10:07:57;5.60;;;4.63;;
2434;SDS011;1228;51.022;6.764;2023-07-08T10:10:34;11.35;;;4.93;;
2434;SDS011;1228;51.022;6.764;2023-07-08T10:13:06;5.32;;;4.50;;
2434;SDS011;1228;51.022;6.764;2023-07-08T10:15:50;6.65;;;4.50;;
2434;SDS011;1228;51.022;6.764;2023-07-08T10:18:37;7.38;;;4.63;;
2434;SDS011;1228;51.022;6.764;2023-07-08T10:23:43;5.05;;;4.45;;
2434;SDS011;1228;51.022;6.764;2023-07-08T10:26:20;5.20;;;4.20;;
2434;SDS011;1228;51.022;6.764;2023-07-08T10:36:56;6.57;;;4.72;;
2434;SDS011;1228;51.022;6.764;2023-07-08T10:40:18;6.60;;;4.35;;
2434;SDS011;1228;51.022;6.764;2023-07-08T10:42:28;4.40;;;3.90;;
2434;SDS011;1228;51.022;6.764;2023-07-08T10:53:46;6.75;;;4.57;;
2434;SDS011;1228;51.022;6.764;2023-07-08T10:56:25;9.52;;;4.80;;
2434;SDS011;1228;51.022;6.764;2023-07-08T11:09:49;5.65;;;5.15;;
2434;SDS011;1228;51.022;6.764;2023-07-08T11:23:37;9.25;;;4.30;;
2434;SDS011;1228;51.022;6.764;2023-07-08T11:26:11;4.43;;;3.90;;
2434;SDS011;1228;51.022;6.764;2023-07-08T11:28:48;5.68;;;4.10;;
2434;SDS011;1228;51.022;6.764;2023-07-08T11:31:17;3.90;;;3.58;;
2434;SDS011;1228;51.022;6.764;2023-07-08T11:33:44;4.70;;;3.58;;
2434;SDS011;1228;51.022;6.764;2023-07-08T11:36:11;6.90;;;4.57;;
2434;SDS011;1228;51.022;6.764;2023-07-08T11:38:38;4.93;;;3.78;;
2434;SDS011;1228;51.022;6.764;2023-07-08T11:41:15;5.07;;;4.45;;
2434;SDS011;1228;51.022;6.764;2023-07-08T11:43:49;8.13;;;3.90;;
2434;SDS011;1228;51.022;6.764;2023-07-08T11:46:21;6.15;;;4.78;;
2434;SDS011;1228;51.022;6.764;2023-07-08T11:48:51;7.35;;;4.13;;
2434;SDS011;1228;51.022;6.764;2023-07-08T11:51:19;5.47;;;4.65;;
2434;SDS011;1228;51.022;6.764;2023-07-08T11:59:23;5.60;;;4.35;;
2434;SDS011;1228;51.022;6.764;2023-07-08T12:04:31;5.57;;;4.00;;
2434;SDS011;1228;51.022;6.764;2023-07-08T12:09:44;4.90;;;4.35;;
2434;SDS011;1228;51.022;6.764;2023-07-08T12:12:24;4.65;;;3.92;;
2434;SDS011;1228;51.022;6.764;2023-07-08T12:14:58;5.75;;;4.00;;
2434;SDS011;1228;51.022;6.764;2023-07-08T12:17:26;10.95;;;5.65;;
2434;SDS011;1228;51.022;6.764;2023-07-08T12:19:53;8.15;;;4.22;;
2434;SDS011;1228;51.022;6.764;2023-07-08T12:22:22;6.45;;;4.68;;
2434;SDS011;1228;51.022;6.764;2023-07-08T12:24:48;5.05;;;4.22;;
2434;SDS011;1228;51.022;6.764;2023-07-08T12:27:14;7.35;;;4.30;;
2434;SDS011;1228;51.022;6.764;2023-07-08T12:29:39;6.50;;;4.03;;
2434;SDS011;1228;51.022;6.764;2023-07-08T12:32:05;5.75;;;4.82;;
2434;SDS011;1228;51.022;6.764;2023-07-08T12:34:34;6.75;;;4.20;;
2434;SDS011;1228;51.022;6.764;2023-07-08T12:36:59;6.78;;;4.60;;
2434;SDS011;1228;51.022;6.764;2023-07-08T12:39:26;6.05;;;4.50;;
2434;SDS011;1228;51.022;6.764;2023-07-08T12:41:51;7.25;;;4.15;;
2434;SDS011;1228;51.022;6.764;2023-07-08T12:44:18;6.82;;;4.35;;
2434;SDS011;1228;51.022;6.764;2023-07-08T12:46:48;6.65;;;4.45;;
2434;SDS011;1228;51.022;6.764;2023-07-08T12:49:17;7.38;;;4.43;;
2434;SDS011;1228;51.022;6.764;2023-07-08T12:51:44;7.18;;;4.40;;
2434;SDS011;1228;51.022;6.764;2023-07-08T12:54:11;6.43;;;4.28;;
2434;SDS011;1228;51.022;6.764;2023-07-08T12:56:37;9.02;;;4.63;;
2434;SDS011;1228;51.022;6.764;2023-07-08T12:59:05;6.22;;;4.78;;
2434;SDS011;1228;51.022;6.764;2023-07-08T13:01:32;6.60;;;4.30;;
2434;SDS011;1228;51.022;6.764;2023-07-08T13:04:00;6.95;;;4.68;;
2434;SDS011;1228;51.022;6.764;2023-07-08T13:06:29;6.68;;;4.25;;
2434;SDS011;1228;51.022;6.764;2023-07-08T13:08:58;6.07;;;4.60;;
2434;SDS011;1228;51.022;6.764;2023-07-08T13:11:30;5.18;;;4.40;;
2434;SDS011;1228;51.022;6.764;2023-07-08T13:13:57;8.45;;;4.40;;
2434;SDS011;1228;51.022;6.764;2023-07-08T13:16:28;7.10;;;4.40;;
2434;SDS011;1228;51.022;6.764;2023-07-08T13:18:57;6.50;;;4.63;;
2434;SDS011;1228;51.022;6.764;2023-07-08T13:21:22;5.82;;;4.63;;
2434;SDS011;1228;51.022;6.764;2023-07-08T13:23:55;6.05;;;4.70;;
2434;SDS011;1228;51.022;6.764;2023-07-08T13:26:22;5.05;;;4.32;;
2434;SDS011;1228;51.022;6.764;2023-07-08T13:28:50;7.50;;;4.07;;
2434;SDS011;1228;51.022;6.764;2023-07-08T13:31:37;6.38;;;4.07;;
2434;SDS011;1228;51.022;6.764;2023-07-08T13:34:08;5.15;;;3.90;;
2434;SDS011;1228;51.022;6.764;2023-07-08T13:36:40;5.70;;;4.50;;
2434;SDS011;1228;51.022;6.764;2023-07-08T13:39:08;5.05;;;3.78;;
2434;SDS011;1228;51.022;6.764;2023-07-08T13:41:43;8.63;;;4.70;;
2434;SDS011;1228;51.022;6.764;2023-07-08T13:44:10;7.28;;;4.95;;
2434;SDS011;1228;51.022;6.764;2023-07-08T13:46:55;7.00;;;4.28;;
2434;SDS011;1228;51.022;6.764;2023-07-08T13:49:56;6.18;;;4.72;;
2434;SDS011;1228;51.022;6.764;2023-07-08T13:52:20;5.93;;;4.65;;
2434;SDS011;1228;51.022;6.764;2023-07-08T13:54:49;4.07;;;3.67;;
2434;SDS011;1228;51.022;6.764;2023-07-08T13:57:19;8.32;;;4.82;;
2434;SDS011;1228;51.022;6.764;2023-07-08T13:59:47;7.57;;;4.32;;
2434;SDS011;1228;51.022;6.764;2023-07-08T14:02:14;5.72;;;4.35;;
2434;SDS011;1228;51.022;6.764;2023-07-08T14:04:42;5.63;;;4.53;;
2434;SDS011;1228;51.022;6.764;2023-07-08T14:07:22;5.30;;;4.13;;
2434;SDS011;1228;51.022;6.764;2023-07-08T14:09:49;4.15;;;3.58;;
2434;SDS011;1228;51.022;6.764;2023-07-08T14:12:15;7.75;;;4.35;;
2434;SDS011;1228;51.022;6.764;2023-07-08T14:14:41;5.70;;;4.20;;
2434;SDS011;1228;51.022;6.764;2023-07-08T14:17:11;5.63;;;4.28;;
2434;SDS011;1228;51.022;6.764;2023-07-08T14:19:38;7.47;;;4.53;;
2434;SDS011;1228;51.022;6.764;2023-07-08T14:24:38;6.47;;;4.53;;
2434;SDS011;1228;51.022;6.764;2023-07-08T14:27:05;8.68;;;4.72;;
2434;SDS011;1228;51.022;6.764;2023-07-08T14:29:39;8.20;;;4.85;;
2434;SDS011;1228;51.022;6.764;2023-07-08T14:32:08;5.25;;;4.75;;
2434;SDS011;1228;51.022;6.764;2023-07-08T14:34:41;8.80;;;5.38;;
2434;SDS011;1228;51.022;6.764;2023-07-08T14:37:15;6.90;;;4.38;;
2434;SDS011;1228;51.022;6.764;2023-07-08T14:39:43;7.10;;;4.68;;
2434;SDS011;1228;51.022;6.764;2023-07-08T14:42:13;4.85;;;4.30;;
2434;SDS011;1228;51.022;6.764;2023-07-08T14:44:42;6.45;;;4.68;;
2434;SDS011;1228;51.022;6.764;2023-07-08T14:47:11;6.40;;;4.50;;
2434;SDS011;1228;51.022;6.764;2023-07-08T14:49:37;11.48;;;4.60;;
2434;SDS011;1228;51.022;6.764;2023-07-08T14:52:03;5.30;;;4.80;;
2434;SDS011;1228;51.022;6.764;2023-07-08T14:54:29;7.45;;;4.82;;
2434;SDS011;1228;51.022;6.764;2023-07-08T14:56:56;5.53;;;4.70;;
2434;SDS011;1228;51.022;6.764;2023-07-08T14:59:23;5.22;;;4.63;;
2434;SDS011;1228;51.022;6.764;2023-07-08T15:01:50;5.80;;;4.65;;
2434;SDS011;1228;51.022;6.764;2023-07-08T15:04:17;5.53;;;4.57;;
2434;SDS011;1228;51.022;6.764;2023-07-08T15:06:44;5.88;;;4.82;;
2434;SDS011;1228;51.022;6.764;2023-07-08T15:09:10;6.25;;;4.10;;
2434;SDS011;1228;51.022;6.764;2023-07-08T15:11:37;7.93;;;4.53;;
2434;SDS011;1228;51.022;6.764;2023-07-08T15:14:05;6.22;;;4.55;;
2434;SDS011;1228;51.022;6.764;2023-07-08T15:16:42;5.90;;;4.60;;
2434;SDS011;1228;51.022;6.764;2023-07-08T15:19:10;7.28;;;5.05;;
2434;SDS011;1228;51.022;6.764;2023-07-08T15:21:38;7.85;;;5.03;;
2434;SDS011;1228;51.022;6.764;2023-07-08T15:24:06;7.97;;;5.15;;
2434;SDS011;1228;51.022;6.764;2023-07-08T15:26:33;8.18;;;4.25;;
2434;SDS011;1228;51.022;6.764;2023-07-08T15:28:59;8.10;;;5.43;;
2434;SDS011;1228;51.022;6.764;2023-07-08T15:31:25;6.03;;;4.50;;
2434;SDS011;1228;51.022;6.764;2023-07-08T15:33:53;5.85;;;4.40;;
2434;SDS011;1228;51.022;6.764;2023-07-08T15:36:19;7.97;;;4.53;;
2434;SDS011;1228;51.022;6.764;2023-07-08T15:38:45;7.15;;;4.78;;
2434;SDS011;1228;51.022;6.764;2023-07-08T15:41:20;6.13;;;4.65;;
2434;SDS011;1228;51.022;6.764;2023-07-08T15:43:48;7.30;;;4.18;;
2434;SDS011;1228;51.022;6.764;2023-07-08T15:46:14;8.10;;;4.78;;
2434;SDS011;1228;51.022;6.764;2023-07-08T15:48:41;7.60;;;4.53;;
2434;SDS011;1228;51.022;6.764;2023-07-08T15:51:07;5.47;;;4.65;;
2434;SDS011;1228;51.022;6.764;2023-07-08T15:53:38;7.75;;;5.10;;
2434;SDS011;1228;51.022;6.764;2023-07-08T15:56:03;6.60;;;4.45;;
2434;SDS011;1228;51.022;6.764;2023-07-08T15:58:30;5.32;;;4.20;;
2434;SDS011;1228;51.022;6.764;2023-07-08T16:00:58;7.68;;;5.07;;
2434;SDS011;1228;51.022;6.764;2023-07-08T16:03:27;4.63;;;4.20;;
2434;SDS011;1228;51.022;6.764;2023-07-08T16:05:54;6.57;;;4.57;;
2434;SDS011;1228;51.022;6.764;2023-07-08T16:08:21;5.25;;;4.75;;
2434;SDS011;1228;51.022;6.764;2023-07-08T16:11:09;8.20;;;5.13;;
2434;SDS011;1228;51.022;6.764;2023-07-08T16:13:37;5.70;;;5.07;;
2434;SDS011;1228;51.022;6.764;2023-07-08T16:16:04;5.90;;;4.88;;
2434;SDS011;1228;51.022;6.764;2023-07-08T16:18:31;7.22;;;5.80;;
2434;SDS011;1228;51.022;6.764;2023-07-08T16:20:57;6.55;;;4.88;;
2434;SDS011;1228;51.022;6.764;2023-07-08T16:23:22;7.90;;;4.60;;
2434;SDS011;1228;51.022;6.764;2023-07-08T16:25:50;9.15;;;5.13;;
2434;SDS011;1228;51.022;6.764;2023-07-08T16:28:19;8.25;;;5.18;;
2434;SDS011;1228;51.022;6.764;2023-07-08T16:30:52;9.63;;;4.90;;
2434;SDS011;1228;51.022;6.764;2023-07-08T16:33:18;6.07;;;5.18;;
2434;SDS011;1228;51.022;6.764;2023-07-08T16:35:44;8.32;;;5.20;;
2434;SDS011;1228;51.022;6.764;2023-07-08T16:38:09;5.80;;;4.80;;
2434;SDS011;1228;51.022;6.764;2023-07-08T16:40:35;9.18;;;5.40;;